This is the latest recevied weather packets stored in our database for station/object F4DVI. If no packets are shown the sender has not sent any weather packets the latest 10 day(s).
| Time | Temp. | Humidity | Pressure | Rain* | Wind** | Luminosity | Snow |
|---|---|---|---|---|---|---|---|
| 1777805918 | 21.11° C | 65% | 0 hPa | 0 mm | - | - | - |
| 1777805618 | 21.11° C | 67% | 0 hPa | 0 mm | - | - | - |
| 1777805318 | 20° C | 73% | 0 hPa | 0 mm | - | - | - |
| 1777805018 | 18.89° C | 74% | 0 hPa | 0 mm | - | - | - |
| 1777804718 | 19.44° C | 71% | 0 hPa | 0 mm | - | - | - |
| 1777804418 | 18.89° C | 71% | 0 hPa | 0 mm | - | - | - |
| 1777804118 | 19.44° C | 70% | 0 hPa | 0 mm | - | - | - |
| 1777803818 | 18.89° C | 70% | 0 hPa | 0 mm | - | - | - |
| 1777803518 | 19.44° C | 69% | 0 hPa | 0 mm | - | - | - |
| 1777803218 | 19.44° C | 68% | 0 hPa | 0 mm | - | - | - |
| 1777802918 | 20.56° C | 67% | 0 hPa | 0 mm | - | - | - |
| 1777802618 | 21.11° C | 66% | 0 hPa | 0 mm | - | - | - |
| 1777802318 | 21.11° C | 67% | 0 hPa | 0 mm | - | - | - |
| 1777802018 | 20.56° C | 71% | 0 hPa | 0 mm | - | - | - |
| 1777801719 | 20° C | 74% | 0 hPa | 0 mm | - | - | - |
| 1777801418 | 19.44° C | 75% | 0 hPa | 0 mm | - | - | - |
| 1777801118 | 18.89° C | 75% | 0 hPa | 0 mm | - | - | - |
| 1777800818 | 18.89° C | 76% | 0 hPa | 0 mm | - | - | - |
| 1777800518 | 18.33° C | 77% | 0 hPa | 0 mm | - | - | - |
| 1777800218 | 18.33° C | 79% | 0 hPa | 0 mm | - | - | - |
| 1777799918 | 17.78° C | 80% | 0 hPa | 0 mm | - | - | - |
| 1777799618 | 17.22° C | 82% | 0 hPa | 0 mm | - | - | - |
| 1777799318 | 16.67° C | 83% | 0 hPa | 0.25 mm | - | - | - |
| 1777799018 | 16.11° C | 83% | 0 hPa | 0.25 mm | - | - | - |
| 1777798718 | 16.67° C | 83% | 0 hPa | 0.25 mm | - | - | - |
* Rain latest hour (hover to see other rain measurements)
** Current wind speed in m/s (hover to see current wind gust speed)